Time;durP1;ratioP1;P1;durP2;ratioP2;P2;SDS_P1;SDS_P2;PMS_P1;PMS_P2;Temp;Humidity;BMP_temperature;BMP_pressure;BME280_temperature;BME280_humidity;BME280_pressure;Samples;Min_cycle;Max_cycle;Signal;HPM_P1;HPM_P2
2023/05/03 00:02:13;;;;;;;1.73;1.00;;;11.10;59.30;;;;;;5009778;28;20025;-77
2023/05/03 00:04:40;;;;;;;1.27;1.00;;;11.00;59.40;;;;;;5029064;28;20115;-77
2023/05/03 00:07:06;;;;;;;1.13;0.77;;;11.00;59.50;;;;;;5033730;28;20390;-78
2023/05/03 00:09:34;;;;;;;1.23;0.90;;;10.90;59.50;;;;;;5023802;28;20028;-77
2023/05/03 00:12:01;;;;;;;1.13;0.82;;;10.90;59.80;;;;;;5025667;28;20040;-78
2023/05/03 00:14:27;;;;;;;1.60;1.00;;;10.90;59.70;;;;;;5036613;28;20457;-77
2023/05/03 00:16:52;;;;;;;1.20;0.90;;;10.90;59.80;;;;;;5024861;28;20033;-78
2023/05/03 00:19:18;;;;;;;2.37;1.20;;;10.80;59.90;;;;;;5026345;28;20094;-77
2023/05/03 00:21:45;;;;;;;1.85;0.90;;;10.80;60.00;;;;;;5024323;28;20123;-77
2023/05/03 00:24:10;;;;;;;2.45;1.00;;;10.80;60.00;;;;;;5022283;28;20306;-77
2023/05/03 00:26:36;;;;;;;1.40;1.00;;;10.70;60.00;;;;;;5037383;28;20108;-77
2023/05/03 00:29:02;;;;;;;1.95;1.00;;;10.70;60.10;;;;;;5025543;28;20069;-78
2023/05/03 00:31:28;;;;;;;1.60;1.00;;;10.60;60.10;;;;;;5037182;28;20111;-77
2023/05/03 00:33:53;;;;;;;2.65;1.20;;;10.60;60.10;;;;;;5011090;28;20033;-78
2023/05/03 00:36:19;;;;;;;2.03;0.90;;;10.50;60.20;;;;;;5026408;28;20682;-77
2023/05/03 00:38:45;;;;;;;2.20;1.00;;;10.50;60.40;;;;;;5035620;28;20532;-77
2023/05/03 00:41:11;;;;;;;2.53;1.10;;;10.50;60.40;;;;;;5022573;28;20551;-77
2023/05/03 00:43:37;;;;;;;1.87;1.10;;;10.40;60.40;;;;;;5033706;28;20017;-77
2023/05/03 00:46:05;;;;;;;2.03;1.13;;;10.30;60.50;;;;;;5024981;28;20045;-77
2023/05/03 00:48:31;;;;;;;2.38;0.95;;;10.30;60.90;;;;;;5001717;28;20036;-77
2023/05/03 00:50:59;;;;;;;1.45;1.00;;;10.20;60.90;;;;;;5026496;28;20132;-78
2023/05/03 00:53:26;;;;;;;2.67;1.10;;;10.20;60.90;;;;;;5038157;28;20025;-78
2023/05/03 00:55:52;;;;;;;2.33;1.10;;;10.20;61.20;;;;;;5027102;28;20723;-78
2023/05/03 00:58:19;;;;;;;1.90;1.00;;;10.10;61.20;;;;;;5036702;28;20682;-77
2023/05/03 01:00:47;;;;;;;2.50;1.05;;;10.10;61.20;;;;;;5046654;28;20017;-77
2023/05/03 01:03:13;;;;;;;1.63;1.10;;;10.10;61.40;;;;;;5013690;28;20266;-77
2023/05/03 01:06:05;;;;;;;1.80;1.10;;;10.00;61.30;;;;;;5040417;28;20034;-77
2023/05/03 01:08:36;;;;;;;2.15;1.20;;;10.00;63.00;;;;;;5032938;28;20053;-78
2023/05/03 01:11:46;;;;;;;1.67;1.00;;;10.00;61.50;;;;;;5023335;28;20040;-78
2023/05/03 01:14:27;;;;;;;2.30;1.00;;;9.90;63.30;;;;;;5038293;28;20445;-77
2023/05/03 01:16:57;;;;;;;4.13;1.10;;;9.90;62.40;;;;;;5027728;28;20414;-77
2023/05/03 01:19:41;;;;;;;1.50;1.00;;;9.90;61.90;;;;;;5015789;28;20013;-77
2023/05/03 01:22:36;;;;;;;2.22;1.10;;;9.80;62.80;;;;;;5027023;28;20409;-77
2023/05/03 01:25:10;;;;;;;1.98;1.10;;;9.80;63.30;;;;;;5033315;28;20084;-78
2023/05/03 01:27:37;;;;;;;1.92;0.90;;;9.70;62.50;;;;;;5028005;28;20063;-77
2023/05/03 01:30:10;;;;;;;2.30;1.17;;;9.70;62.00;;;;;;5033307;28;20044;-78
2023/05/03 01:33:05;;;;;;;1.93;1.10;;;9.70;62.70;;;;;;5031100;28;20036;-77
2023/05/03 01:35:46;;;;;;;1.77;1.02;;;9.70;63.60;;;;;;5017997;28;20033;-77
2023/05/03 01:38:12;;;;;;;1.83;1.00;;;9.60;63.30;;;;;;5026873;28;20029;-77
2023/05/03 01:40:46;;;;;;;2.22;1.00;;;9.60;62.30;;;;;;5036679;28;20024;-78
2023/05/03 01:43:15;;;;;;;2.85;1.25;;;9.50;63.00;;;;;;5026112;28;20028;-78
2023/05/03 01:45:41;;;;;;;1.90;1.20;;;9.50;62.70;;;;;;5036997;28;20765;-77
2023/05/03 01:48:18;;;;;;;1.60;1.10;;;9.50;63.10;;;;;;5027039;28;20040;-77
2023/05/03 01:50:44;;;;;;;2.30;1.20;;;9.40;63.90;;;;;;5013349;28;20079;-77
2023/05/03 01:53:10;;;;;;;1.90;1.00;;;9.40;62.90;;;;;;5042894;28;20227;-77
2023/05/03 01:55:36;;;;;;;2.10;1.20;;;9.30;62.90;;;;;;5039929;28;20071;-77
2023/05/03 01:58:02;;;;;;;2.45;1.10;;;9.30;63.10;;;;;;5024881;28;20064;-77
2023/05/03 02:00:27;;;;;;;1.50;1.00;;;9.20;63.10;;;;;;5036108;28;20214;-77
2023/05/03 02:02:53;;;;;;;1.80;1.07;;;9.20;63.10;;;;;;5028624;28;20048;-78
2023/05/03 02:05:19;;;;;;;1.80;1.17;;;9.20;63.20;;;;;;5013981;28;20023;-77
2023/05/03 02:07:44;;;;;;;3.07;1.10;;;9.20;63.30;;;;;;5025872;28;20241;-78
2023/05/03 02:10:13;;;;;;;2.13;1.00;;;9.20;63.40;;;;;;5034546;28;20461;-77
2023/05/03 02:12:48;;;;;;;1.55;1.13;;;9.10;63.40;;;;;;5033871;28;20171;-77
2023/05/03 02:15:14;;;;;;;2.50;1.00;;;9.10;64.40;;;;;;5026879;28;20575;-77
2023/05/03 02:17:42;;;;;;;2.58;1.17;;;9.10;63.60;;;;;;5016302;28;20033;-76
2023/05/03 02:20:08;;;;;;;2.03;1.10;;;9.00;64.00;;;;;;5001132;28;20600;-77
2023/05/03 02:22:35;;;;;;;2.43;1.13;;;9.00;63.70;;;;;;5053499;28;20076;-77
2023/05/03 02:25:00;;;;;;;2.97;1.10;;;9.00;63.80;;;;;;5024668;28;20033;-77
2023/05/03 02:27:26;;;;;;;1.90;1.02;;;9.00;63.90;;;;;;5037691;28;20397;-77
2023/05/03 02:29:52;;;;;;;2.00;1.10;;;8.90;63.90;;;;;;5023183;28;20060;-78
2023/05/03 02:32:19;;;;;;;1.67;1.08;;;8.90;63.90;;;;;;5035823;28;20033;-77
2023/05/03 02:34:47;;;;;;;1.85;1.17;;;8.90;64.00;;;;;;5025246;28;20021;-78
2023/05/03 02:37:13;;;;;;;2.97;1.20;;;8.90;64.20;;;;;;5010110;28;20063;-77
2023/05/03 02:39:39;;;;;;;1.95;1.00;;;8.90;64.20;;;;;;5026198;28;20033;-77
2023/05/03 02:42:04;;;;;;;1.80;1.30;;;8.90;64.20;;;;;;5036583;28;20453;-77
2023/05/03 02:44:30;;;;;;;2.95;1.00;;;8.80;64.20;;;;;;5024336;28;20017;-77
2023/05/03 02:46:56;;;;;;;1.30;0.90;;;8.80;64.40;;;;;;5032985;28;20058;-78
2023/05/03 02:49:22;;;;;;;2.03;1.10;;;8.80;64.50;;;;;;5031768;28;20048;-77
2023/05/03 02:51:47;;;;;;;1.50;0.90;;;8.80;64.50;;;;;;5018299;28;20060;-78
2023/05/03 02:54:13;;;;;;;1.93;1.20;;;8.80;64.60;;;;;;5009267;28;20063;-77
2023/05/03 02:56:39;;;;;;;2.30;1.20;;;8.80;64.60;;;;;;5034773;28;20021;-77
2023/05/03 02:59:05;;;;;;;1.50;0.98;;;8.80;64.70;;;;;;5023097;28;20683;-78
2023/05/03 03:01:32;;;;;;;1.83;1.00;;;8.70;64.70;;;;;;5038485;28;20469;-77
2023/05/03 03:03:59;;;;;;;1.83;1.00;;;8.80;65.10;;;;;;5033711;28;20698;-78
2023/05/03 03:06:25;;;;;;;1.80;1.20;;;8.70;64.80;;;;;;5028398;28;20429;-77
2023/05/03 03:08:50;;;;;;;2.00;1.00;;;8.70;64.90;;;;;;5005781;28;20028;-78
2023/05/03 03:11:16;;;;;;;2.00;1.13;;;8.70;65.00;;;;;;5034974;28;20264;-77
2023/05/03 03:13:42;;;;;;;2.03;1.00;;;8.70;65.00;;;;;;5037134;28;20560;-77
2023/05/03 03:16:09;;;;;;;2.08;1.17;;;8.70;65.00;;;;;;5021459;28;20491;-78
2023/05/03 03:18:35;;;;;;;1.75;1.10;;;8.60;65.00;;;;;;5035852;28;20021;-77
2023/05/03 03:21:01;;;;;;;2.83;1.30;;;8.60;65.10;;;;;;5023205;28;20029;-78
2023/05/03 03:23:27;;;;;;;1.80;1.10;;;8.60;65.30;;;;;;5015186;28;20359;-77
2023/05/03 03:25:53;;;;;;;2.30;1.10;;;8.50;65.30;;;;;;5027154;28;20032;-78
2023/05/03 03:28:18;;;;;;;2.28;1.10;;;8.50;65.30;;;;;;5032615;28;20083;-77
2023/05/03 03:30:44;;;;;;;2.00;1.10;;;8.50;65.40;;;;;;5036316;28;20045;-77
2023/05/03 03:33:10;;;;;;;2.28;1.05;;;8.50;65.60;;;;;;5027373;28;20033;-78
2023/05/03 03:35:37;;;;;;;2.27;1.07;;;8.50;65.60;;;;;;5034901;28;20053;-77
2023/05/03 03:38:03;;;;;;;2.60;1.10;;;8.50;65.60;;;;;;5010428;28;20082;-78
2023/05/03 03:40:28;;;;;;;1.88;0.88;;;8.40;65.60;;;;;;5027669;28;20041;-77
2023/05/03 03:42:54;;;;;;;1.77;1.15;;;8.40;65.60;;;;;;5034572;28;20035;-77
2023/05/03 03:45:20;;;;;;;1.87;1.10;;;8.30;65.60;;;;;;5034481;28;20388;-77
2023/05/03 03:47:46;;;;;;;2.03;1.30;;;8.40;65.80;;;;;;5006544;28;20527;-78
2023/05/03 03:50:12;;;;;;;2.17;1.00;;;8.30;65.80;;;;;;5046270;28;20425;-77
2023/05/03 03:52:38;;;;;;;2.17;1.10;;;8.30;65.80;;;;;;5032925;28;20612;-77
2023/05/03 03:55:04;;;;;;;2.33;1.30;;;8.30;65.90;;;;;;5001154;28;20593;-77
2023/05/03 03:57:30;;;;;;;2.20;1.10;;;8.30;66.30;;;;;;5036504;28;20360;-77
2023/05/03 03:59:57;;;;;;;2.22;1.23;;;8.20;66.10;;;;;;5036259;28;20521;-78
2023/05/03 04:02:23;;;;;;;3.08;1.40;;;8.20;66.30;;;;;;5024689;28;20699;-77
2023/05/03 04:04:49;;;;;;;2.20;1.30;;;8.20;66.30;;;;;;5036129;28;20338;-78
2023/05/03 04:07:15;;;;;;;2.87;1.30;;;8.20;66.30;;;;;;5032847;28;20664;-78
2023/05/03 04:09:41;;;;;;;3.28;1.13;;;8.20;66.40;;;;;;5014845;28;20040;-78
2023/05/03 04:12:07;;;;;;;2.20;1.10;;;8.10;66.40;;;;;;5038546;28;20138;-77
2023/05/03 04:14:33;;;;;;;2.58;1.20;;;8.10;66.50;;;;;;5034546;28;20025;-77
2023/05/03 04:16:58;;;;;;;1.90;1.20;;;8.10;66.60;;;;;;5031639;28;20029;-79
2023/05/03 04:19:25;;;;;;;2.23;1.13;;;8.10;66.50;;;;;;5021942;28;20121;-78
2023/05/03 04:21:51;;;;;;;2.03;1.20;;;8.00;66.60;;;;;;5031673;28;20024;-79
2023/05/03 04:24:17;;;;;;;1.85;1.10;;;8.00;66.70;;;;;;5008894;28;21047;-78
2023/05/03 04:26:43;;;;;;;2.73;1.00;;;8.00;66.70;;;;;;5023364;28;20021;-78
2023/05/03 04:29:10;;;;;;;2.60;1.30;;;8.00;66.80;;;;;;5045932;28;20051;-78
2023/05/03 04:31:36;;;;;;;2.20;1.30;;;8.00;66.90;;;;;;5037148;28;20042;-78
2023/05/03 04:34:02;;;;;;;1.98;1.15;;;7.90;66.80;;;;;;5021440;28;20685;-80
2023/05/03 04:36:28;;;;;;;2.43;1.30;;;7.90;66.90;;;;;;5033856;28;20037;-78
2023/05/03 04:38:54;;;;;;;2.88;1.23;;;7.90;67.00;;;;;;5033545;28;20017;-80
2023/05/03 04:41:21;;;;;;;2.55;1.25;;;7.90;67.20;;;;;;5021471;28;21440;-79
2023/05/03 04:43:46;;;;;;;3.13;1.30;;;7.90;67.40;;;;;;5017770;28;20013;-79
2023/05/03 04:46:12;;;;;;;3.47;1.30;;;7.90;67.60;;;;;;5027608;28;20552;-78
2023/05/03 04:48:38;;;;;;;2.40;1.27;;;7.90;67.60;;;;;;5026903;28;20683;-78
2023/05/03 04:51:04;;;;;;;1.70;1.30;;;7.90;67.80;;;;;;5030315;28;20510;-79
2023/05/03 04:53:30;;;;;;;2.40;1.25;;;7.90;67.80;;;;;;5032340;28;20061;-78
2023/05/03 04:55:56;;;;;;;3.20;1.20;;;7.90;67.80;;;;;;5018036;28;20591;-79
2023/05/03 04:58:21;;;;;;;2.70;1.27;;;7.90;67.80;;;;;;5018465;28;20029;-78
2023/05/03 05:00:48;;;;;;;2.03;1.10;;;7.90;68.80;;;;;;5030496;28;20099;-78
2023/05/03 05:03:15;;;;;;;2.95;1.30;;;7.90;68.00;;;;;;5017149;28;20709;-79
2023/05/03 05:05:40;;;;;;;2.28;1.30;;;7.90;68.10;;;;;;5017160;28;20298;-79
2023/05/03 05:08:06;;;;;;;2.37;1.40;;;8.00;68.90;;;;;;5018722;28;20024;-79
2023/05/03 05:10:35;;;;;;;4.37;1.40;;;7.90;68.10;;;;;;5048964;28;20021;-79
2023/05/03 05:13:00;;;;;;;2.22;1.30;;;8.00;68.30;;;;;;5014835;28;20509;-79
2023/05/03 05:15:26;;;;;;;3.25;1.30;;;8.00;68.70;;;;;;5032404;28;20021;-79
2023/05/03 05:17:52;;;;;;;3.30;1.27;;;8.00;68.50;;;;;;5034905;28;20018;-78
2023/05/03 05:20:18;;;;;;;2.95;1.20;;;8.00;68.20;;;;;;5020127;28;20017;-79
2023/05/03 05:22:43;;;;;;;2.80;1.47;;;8.10;68.80;;;;;;5017557;28;20033;-79
2023/05/03 05:25:09;;;;;;;2.47;1.38;;;8.10;68.90;;;;;;5034473;28;20033;-78
2023/05/03 05:27:35;;;;;;;2.23;1.40;;;8.20;68.90;;;;;;5008620;28;21128;-78
2023/05/03 05:30:01;;;;;;;2.08;1.40;;;8.20;68.90;;;;;;5027589;28;20061;-79
2023/05/03 05:32:26;;;;;;;2.07;1.30;;;8.20;68.90;;;;;;5027176;28;20238;-78
2023/05/03 05:34:54;;;;;;;1.75;1.17;;;8.30;69.00;;;;;;5036118;28;20601;-79
2023/05/03 05:37:24;;;;;;;2.88;1.40;;;8.30;69.20;;;;;;5025844;28;20033;-78
2023/05/03 05:39:49;;;;;;;2.30;1.30;;;8.40;69.40;;;;;;5023978;28;20025;-78
2023/05/03 05:42:15;;;;;;;3.45;1.40;;;8.40;69.20;;;;;;5039382;28;20521;-79
2023/05/03 05:44:41;;;;;;;1.83;1.23;;;8.50;69.20;;;;;;5017967;28;20040;-78
2023/05/03 05:47:08;;;;;;;2.10;1.33;;;8.50;69.10;;;;;;5039647;28;20037;-79
2023/05/03 05:49:34;;;;;;;2.33;1.40;;;8.60;69.00;;;;;;5039000;28;20021;-78
2023/05/03 05:51:59;;;;;;;3.65;1.20;;;8.60;69.20;;;;;;5027536;28;20627;-79
2023/05/03 05:54:25;;;;;;;2.27;1.30;;;8.70;69.40;;;;;;5026288;28;20439;-78
2023/05/03 05:56:51;;;;;;;4.10;1.52;;;8.70;69.30;;;;;;5039368;28;20033;-79
2023/05/03 05:59:17;;;;;;;2.67;1.23;;;8.80;69.50;;;;;;5009978;28;20247;-78
2023/05/03 06:01:46;;;;;;;1.92;1.40;;;8.90;69.80;;;;;;5034219;28;21355;-78
2023/05/03 06:04:12;;;;;;;2.80;1.70;;;8.90;69.60;;;;;;5036857;28;20477;-78
2023/05/03 06:06:38;;;;;;;2.10;1.30;;;9.00;69.60;;;;;;5025927;28;20523;-78
2023/05/03 06:09:04;;;;;;;2.58;1.50;;;9.10;69.60;;;;;;5035004;28;20138;-78
2023/05/03 06:11:30;;;;;;;2.83;1.70;;;9.20;69.90;;;;;;5019787;28;20052;-78
2023/05/03 06:13:56;;;;;;;2.78;1.67;;;9.30;69.80;;;;;;5026666;28;20021;-79
2023/05/03 06:16:23;;;;;;;3.83;1.80;;;9.40;69.90;;;;;;5021380;28;20044;-78
2023/05/03 06:18:49;;;;;;;2.67;1.65;;;9.50;70.10;;;;;;5036512;28;20032;-78
2023/05/03 06:21:15;;;;;;;3.60;2.00;;;9.60;69.70;;;;;;5010828;28;20017;-78
2023/05/03 06:23:41;;;;;;;4.00;2.00;;;9.70;69.50;;;;;;5023388;28;20025;-79
2023/05/03 06:26:07;;;;;;;3.53;2.00;;;9.80;69.40;;;;;;5006473;28;20029;-79
2023/05/03 06:28:34;;;;;;;3.88;1.95;;;9.80;69.40;;;;;;5031030;28;20100;-79
2023/05/03 06:31:00;;;;;;;3.90;1.83;;;9.90;69.50;;;;;;5008810;28;20079;-79
2023/05/03 06:33:26;;;;;;;2.80;1.67;;;9.90;69.50;;;;;;5033865;28;20112;-77
2023/05/03 06:35:51;;;;;;;3.23;1.87;;;10.00;69.70;;;;;;5036164;28;20598;-78
2023/05/03 06:38:19;;;;;;;2.80;1.80;;;10.10;69.50;;;;;;5038960;28;20059;-77
2023/05/03 06:40:45;;;;;;;3.33;1.90;;;10.20;69.80;;;;;;5037625;28;20120;-78
2023/05/03 06:43:10;;;;;;;3.58;1.85;;;10.20;69.70;;;;;;5018859;28;20067;-79
2023/05/03 06:45:38;;;;;;;3.03;1.67;;;10.30;69.80;;;;;;5012581;28;20103;-78
2023/05/03 06:48:05;;;;;;;3.05;2.05;;;10.40;69.70;;;;;;5037534;28;20028;-79
2023/05/03 06:50:30;;;;;;;3.08;1.70;;;10.50;69.60;;;;;;5037176;28;20487;-78
2023/05/03 06:52:56;;;;;;;2.80;1.60;;;10.60;69.60;;;;;;5021883;28;20028;-78
2023/05/03 06:55:22;;;;;;;2.50;1.73;;;10.70;69.80;;;;;;5032274;28;20027;-78
2023/05/03 06:57:48;;;;;;;2.40;1.80;;;10.80;69.80;;;;;;5020547;28;20151;-78
2023/05/03 07:00:14;;;;;;;3.53;2.00;;;10.90;69.90;;;;;;5035795;28;20021;-79
2023/05/03 07:02:41;;;;;;;4.20;1.75;;;11.00;69.80;;;;;;5018777;28;20315;-78
2023/05/03 07:05:07;;;;;;;3.93;1.97;;;11.10;69.80;;;;;;5055555;28;20644;-78
2023/05/03 07:07:33;;;;;;;4.00;2.25;;;11.20;69.70;;;;;;5016477;28;20425;-77
2023/05/03 07:09:59;;;;;;;4.75;2.60;;;11.30;69.70;;;;;;5024712;28;20544;-78
2023/05/03 07:12:27;;;;;;;3.10;2.03;;;11.40;69.90;;;;;;5021131;28;20029;-78
2023/05/03 07:14:54;;;;;;;4.20;2.30;;;11.50;69.90;;;;;;5032768;28;20414;-81
2023/05/03 07:17:20;;;;;;;3.60;2.03;;;11.70;69.70;;;;;;4996329;28;20024;-78
2023/05/03 07:19:47;;;;;;;5.38;2.17;;;11.80;69.60;;;;;;5033902;28;20214;-78
2023/05/03 07:22:14;;;;;;;4.00;2.00;;;12.00;69.80;;;;;;5040440;28;20048;-80
2023/05/03 07:24:40;;;;;;;3.95;2.13;;;12.10;69.80;;;;;;5022655;28;20021;-80
2023/05/03 07:27:06;;;;;;;4.17;2.13;;;12.20;69.80;;;;;;5036239;28;20067;-79
2023/05/03 07:29:32;;;;;;;4.90;2.78;;;12.40;69.80;;;;;;5017817;28;20304;-79
2023/05/03 07:31:58;;;;;;;4.57;2.55;;;12.60;69.60;;;;;;5009646;28;20037;-77
2023/05/03 07:34:24;;;;;;;4.57;2.17;;;12.70;69.40;;;;;;5034259;28;20115;-80
2023/05/03 07:36:53;;;;;;;4.17;2.47;;;12.80;69.20;;;;;;5019533;28;20311;-79
2023/05/03 07:39:19;;;;;;;5.30;2.40;;;13.00;69.10;;;;;;5034333;28;20285;-78
2023/05/03 07:41:44;;;;;;;3.90;2.47;;;13.00;68.90;;;;;;5027408;28;20070;-78
2023/05/03 07:44:10;;;;;;;4.00;2.40;;;13.20;69.20;;;;;;5019030;28;20024;-78
2023/05/03 07:46:36;;;;;;;4.57;2.70;;;13.30;69.50;;;;;;5008976;28;20044;-78
2023/05/03 07:49:03;;;;;;;3.97;2.27;;;13.50;69.90;;;;;;5047388;28;20031;-79
2023/05/03 07:51:30;;;;;;;3.97;2.50;;;13.70;70.00;;;;;;5034796;28;20093;-79
2023/05/03 07:53:56;;;;;;;4.82;2.58;;;13.90;70.30;;;;;;5036495;28;20020;-78
2023/05/03 07:56:22;;;;;;;3.90;2.70;;;14.20;70.70;;;;;;5026447;28;20144;-78
2023/05/03 07:58:48;;;;;;;4.15;3.05;;;14.40;71.20;;;;;;5036612;28;20064;-79
2023/05/03 08:01:13;;;;;;;5.90;3.10;;;14.80;71.40;;;;;;5017852;28;20124;-79
2023/05/03 08:03:39;;;;;;;6.95;3.10;;;15.10;71.60;;;;;;5015078;28;20619;-79
2023/05/03 08:06:05;;;;;;;4.40;2.70;;;15.50;71.00;;;;;;5031648;28;20067;-80
2023/05/03 08:08:32;;;;;;;5.93;2.77;;;15.80;70.20;;;;;;5050939;28;20033;-79
2023/05/03 08:10:58;;;;;;;5.25;2.85;;;16.10;69.70;;;;;;5024113;28;20032;-78
2023/05/03 08:13:24;;;;;;;4.85;3.05;;;16.40;69.60;;;;;;5039870;28;20657;-80
2023/05/03 08:15:50;;;;;;;5.83;3.40;;;16.70;70.40;;;;;;5034044;28;20736;-78
2023/05/03 08:18:15;;;;;;;6.30;3.35;;;17.00;69.70;;;;;;4991632;28;20084;-79
2023/05/03 08:20:42;;;;;;;5.70;3.20;;;17.30;69.60;;;;;;5032384;28;20031;-79
2023/05/03 08:23:08;;;;;;;6.30;3.30;;;17.70;69.60;;;;;;5032515;28;20646;-77
2023/05/03 08:25:35;;;;;;;6.45;3.25;;;18.10;70.00;;;;;;5036654;28;20032;-80
2023/05/03 08:28:01;;;;;;;6.43;3.33;;;18.50;70.00;;;;;;5020803;28;20529;-79
2023/05/03 08:30:27;;;;;;;4.28;2.80;;;18.90;69.80;;;;;;5023150;28;20041;-79
2023/05/03 08:32:53;;;;;;;4.33;2.80;;;19.30;69.70;;;;;;5010551;28;20111;-79
2023/05/03 08:35:19;;;;;;;4.00;3.00;;;19.80;69.40;;;;;;5048252;28;20087;-78
2023/05/03 08:37:45;;;;;;;5.28;3.30;;;20.20;69.00;;;;;;5036259;28;20529;-78
2023/05/03 08:40:12;;;;;;;6.75;3.05;;;20.60;67.70;;;;;;5036396;28;20063;-78
2023/05/03 08:42:40;;;;;;;4.20;2.90;;;21.00;67.70;;;;;;5025107;28;20045;-78
2023/05/03 08:45:09;;;;;;;7.68;3.50;;;21.30;66.90;;;;;;5014893;28;20173;-79
2023/05/03 08:47:37;;;;;;;4.50;3.40;;;21.70;65.60;;;;;;5034502;28;20083;-80
2023/05/03 08:50:07;;;;;;;4.65;2.95;;;22.00;64.50;;;;;;5008783;28;20120;-79
2023/05/03 08:52:34;;;;;;;5.65;3.20;;;22.30;62.30;;;;;;5034912;28;20112;-79
2023/05/03 08:55:00;;;;;;;4.90;3.40;;;22.40;61.30;;;;;;5033892;28;20033;-79
2023/05/03 08:57:27;;;;;;;4.18;2.78;;;22.50;60.30;;;;;;5030572;28;20033;-80
2023/05/03 08:59:57;;;;;;;5.10;2.75;;;22.70;60.10;;;;;;5018649;28;20059;-79
2023/05/03 09:02:23;;;;;;;3.88;2.47;;;22.80;60.00;;;;;;5021574;28;20371;-78
2023/05/03 09:04:49;;;;;;;4.80;2.50;;;23.00;60.00;;;;;;5007826;28;20345;-80
2023/05/03 09:07:15;;;;;;;3.45;2.30;;;23.10;59.70;;;;;;5035538;28;20048;-78
2023/05/03 09:09:42;;;;;;;3.22;2.60;;;23.30;59.70;;;;;;5035688;28;20135;-79
2023/05/03 09:12:08;;;;;;;4.22;2.80;;;23.60;58.90;;;;;;5036834;28;20143;-79
2023/05/03 09:14:51;;;;;;;4.10;2.70;;;23.70;58.30;;;;;;5025774;28;20056;-79
2023/05/03 09:17:20;;;;;;;5.13;2.67;;;23.90;55.00;;;;;;5020823;28;20150;-80
2023/05/03 09:19:53;;;;;;;4.00;2.58;;;24.10;57.20;;;;;;5029953;28;20040;-79
2023/05/03 09:22:19;;;;;;;3.92;2.60;;;24.20;56.00;;;;;;5032139;28;20501;-79
2023/05/03 09:24:56;;;;;;;4.18;2.50;;;24.30;56.20;;;;;;5038897;28;20063;-79
2023/05/03 09:27:23;;;;;;;5.13;2.90;;;24.40;54.00;;;;;;5041709;28;20083;-79
2023/05/03 09:29:50;;;;;;;3.95;2.85;;;24.50;54.70;;;;;;5030601;28;20061;-79
2023/05/03 09:32:16;;;;;;;4.55;2.92;;;24.60;54.10;;;;;;5031521;28;20052;-78
2023/05/03 09:34:43;;;;;;;4.40;2.60;;;24.70;54.00;;;;;;5034737;28;20026;-78
2023/05/03 09:37:09;;;;;;;3.20;2.43;;;24.70;53.90;;;;;;5015743;28;20992;-80
2023/05/03 09:39:35;;;;;;;3.88;2.58;;;24.80;54.50;;;;;;5042286;28;20033;-79
2023/05/03 09:42:17;;;;;;;3.50;2.40;;;24.90;53.80;;;;;;5036840;28;20044;-78
2023/05/03 09:44:50;;;;;;;4.40;2.60;;;25.10;51.80;;;;;;5038304;28;20060;-79
2023/05/03 09:47:16;;;;;;;3.65;2.38;;;25.20;52.50;;;;;;5008788;28;20241;-78
2023/05/03 09:49:43;;;;;;;4.13;2.83;;;25.40;53.70;;;;;;5036387;28;20035;-79
2023/05/03 09:52:10;;;;;;;4.22;2.88;;;25.70;53.20;;;;;;5012209;28;20503;-78
2023/05/03 09:54:36;;;;;;;3.60;2.65;;;25.80;52.30;;;;;;5039509;28;20032;-78
2023/05/03 09:57:04;;;;;;;3.55;2.55;;;26.00;51.70;;;;;;5035501;28;20021;-78
2023/05/03 09:59:35;;;;;;;3.95;2.38;;;26.10;51.80;;;;;;5053300;28;20043;-81
2023/05/03 10:02:03;;;;;;;3.90;2.80;;;26.30;50.50;;;;;;5024677;28;23476;-79
2023/05/03 10:04:47;;;;;;;5.05;2.70;;;26.40;50.60;;;;;;5017898;28;20512;-78
2023/05/03 10:07:16;;;;;;;2.97;2.50;;;26.60;49.00;;;;;;5011383;28;20036;-79
2023/05/03 10:09:44;;;;;;;3.53;2.70;;;26.60;49.50;;;;;;5052511;28;20223;-79
2023/05/03 10:12:12;;;;;;;4.05;2.75;;;26.60;49.00;;;;;;5033506;28;20029;-78
2023/05/03 10:14:43;;;;;;;4.07;2.90;;;26.60;48.10;;;;;;5033791;28;20098;-78
2023/05/03 10:17:22;;;;;;;3.95;2.75;;;26.60;47.60;;;;;;5032147;28;20036;-79
2023/05/03 10:20:09;;;;;;;4.35;2.78;;;26.60;46.80;;;;;;5019439;28;20108;-79
2023/05/03 10:23:03;;;;;;;2.95;2.42;;;26.60;46.10;;;;;;5019635;28;20525;-78
2023/05/03 10:25:30;;;;;;;4.53;2.50;;;26.60;46.20;;;;;;5039866;28;20037;-79
2023/05/03 10:28:07;;;;;;;3.90;2.43;;;26.60;48.00;;;;;;5036287;28;20082;-79
2023/05/03 10:30:40;;;;;;;4.07;2.58;;;26.70;46.90;;;;;;5037676;28;20075;-78
2023/05/03 10:33:11;;;;;;;4.68;2.85;;;26.70;46.70;;;;;;5031988;28;20556;-79
2023/05/03 10:35:42;;;;;;;4.20;2.30;;;26.80;45.80;;;;;;5016423;28;20285;-78
2023/05/03 10:38:20;;;;;;;2.90;2.22;;;26.90;46.50;;;;;;5012067;28;20601;-79
2023/05/03 10:40:46;;;;;;;3.70;2.63;;;27.10;46.40;;;;;;5053693;28;20031;-78
2023/05/03 10:43:33;;;;;;;4.35;2.58;;;27.20;46.50;;;;;;5020841;28;20221;-78
2023/05/03 10:46:02;;;;;;;3.13;2.33;;;27.40;44.30;;;;;;5029539;28;20136;-81
2023/05/03 10:48:29;;;;;;;4.07;2.65;;;27.50;46.10;;;;;;5026272;28;20033;-78
2023/05/03 10:50:56;;;;;;;3.65;2.63;;;27.50;45.20;;;;;;5020725;28;20170;-79
2023/05/03 10:53:38;;;;;;;3.43;2.60;;;27.50;45.00;;;;;;5018608;28;20063;-79
2023/05/03 10:56:12;;;;;;;3.75;2.75;;;27.60;44.00;;;;;;5033510;28;20071;-79
2023/05/03 10:58:46;;;;;;;4.03;2.75;;;27.80;44.50;;;;;;5030548;28;20147;-78
2023/05/03 11:01:15;;;;;;;3.78;2.70;;;27.80;43.00;;;;;;5036467;28;20024;-78
2023/05/03 11:03:47;;;;;;;4.50;2.80;;;27.90;44.40;;;;;;5027757;28;20029;-79
2023/05/03 11:06:33;;;;;;;4.83;2.70;;;28.00;43.40;;;;;;5015129;28;20094;-80
2023/05/03 11:08:59;;;;;;;3.58;2.70;;;28.10;42.20;;;;;;4996808;28;20448;-79
2023/05/03 11:11:25;;;;;;;3.90;2.90;;;28.20;43.80;;;;;;5036580;28;20100;-79
2023/05/03 11:13:52;;;;;;;4.03;2.60;;;28.20;43.30;;;;;;5035310;28;20309;-78
2023/05/03 11:16:18;;;;;;;5.47;2.67;;;28.20;42.90;;;;;;5048137;28;20390;-78
2023/05/03 11:18:45;;;;;;;3.67;2.80;;;28.30;43.40;;;;;;5022097;28;20222;-79
2023/05/03 11:21:11;;;;;;;4.15;2.90;;;28.30;41.80;;;;;;5016179;28;20033;-80
2023/05/03 11:23:38;;;;;;;3.65;2.70;;;28.30;41.80;;;;;;5008947;28;20068;-78
2023/05/03 11:26:08;;;;;;;3.83;2.70;;;28.20;41.80;;;;;;5036041;28;20075;-80
2023/05/03 11:28:37;;;;;;;3.63;2.50;;;28.20;41.90;;;;;;5033182;28;20032;-79
2023/05/03 11:31:05;;;;;;;4.00;2.88;;;28.30;42.50;;;;;;5012446;28;20720;-79
2023/05/03 11:33:33;;;;;;;3.50;2.65;;;28.30;42.40;;;;;;5048265;28;20033;-80
2023/05/03 11:36:05;;;;;;;4.22;2.88;;;28.40;42.60;;;;;;5007173;28;21212;-79
2023/05/03 11:38:32;;;;;;;4.20;2.70;;;28.50;42.20;;;;;;5023351;28;20024;-79
2023/05/03 11:40:58;;;;;;;4.00;2.67;;;28.60;42.10;;;;;;5018769;28;20117;-79
2023/05/03 11:43:25;;;;;;;3.55;2.55;;;28.70;42.10;;;;;;5038467;28;20061;-80
2023/05/03 11:45:56;;;;;;;4.20;2.90;;;28.80;41.80;;;;;;5030909;28;20296;-79
2023/05/03 11:48:22;;;;;;;2.70;2.47;;;28.90;40.20;;;;;;5041199;28;20433;-79
2023/05/03 11:50:54;;;;;;;4.18;2.78;;;28.90;41.30;;;;;;5021675;28;20124;-79
2023/05/03 11:53:23;;;;;;;4.00;2.67;;;28.90;40.70;;;;;;5021929;28;20672;-80
2023/05/03 11:55:53;;;;;;;4.88;2.83;;;29.00;40.70;;;;;;5025377;28;20661;-79
2023/05/03 11:58:25;;;;;;;3.78;2.40;;;29.00;39.60;;;;;;5032840;28;20032;-78
2023/05/03 12:00:52;;;;;;;3.55;2.58;;;29.00;39.80;;;;;;5034724;28;20021;-79
2023/05/03 12:03:27;;;;;;;4.13;2.67;;;29.00;39.60;;;;;;5027875;28;20728;-81
2023/05/03 12:05:54;;;;;;;3.87;2.67;;;29.00;39.90;;;;;;5033296;28;20574;-80
2023/05/03 12:08:20;;;;;;;3.75;2.85;;;29.10;40.50;;;;;;5003020;28;20413;-79
2023/05/03 12:10:47;;;;;;;4.10;2.60;;;29.10;39.50;;;;;;5004974;28;21017;-79
2023/05/03 12:13:13;;;;;;;3.65;2.35;;;29.20;39.80;;;;;;5018414;28;20514;-79
2023/05/03 12:15:42;;;;;;;4.10;2.83;;;29.30;40.30;;;;;;5015059;28;20048;-82
2023/05/03 12:18:09;;;;;;;3.17;2.30;;;29.40;39.90;;;;;;5031600;28;20025;-79
2023/05/03 12:20:37;;;;;;;3.08;2.45;;;29.50;39.70;;;;;;5029417;28;20029;-79
2023/05/03 12:23:06;;;;;;;3.85;2.63;;;29.50;39.10;;;;;;5003104;28;20025;-79
2023/05/03 12:25:33;;;;;;;3.28;2.45;;;29.50;38.60;;;;;;5015460;28;20377;-80
2023/05/03 12:28:02;;;;;;;3.08;2.40;;;29.40;38.40;;;;;;5011652;28;20033;-79
2023/05/03 12:30:28;;;;;;;3.33;2.67;;;29.40;37.10;;;;;;5013422;28;20045;-80
2023/05/03 12:32:54;;;;;;;3.75;2.33;;;29.30;37.00;;;;;;5034623;28;20037;-79
2023/05/03 12:35:21;;;;;;;3.97;2.80;;;29.10;37.50;;;;;;5032608;28;20028;-81
2023/05/03 12:37:48;;;;;;;3.92;2.40;;;29.00;37.20;;;;;;5052378;28;20037;-80
2023/05/03 12:40:15;;;;;;;3.22;2.58;;;29.00;38.10;;;;;;5004662;28;20025;-80
2023/05/03 12:42:41;;;;;;;3.80;2.87;;;28.90;37.40;;;;;;5024400;28;20295;-79
2023/05/03 12:45:08;;;;;;;3.58;2.97;;;28.80;36.90;;;;;;5025611;28;20029;-80
2023/05/03 12:47:35;;;;;;;3.63;2.58;;;28.70;37.00;;;;;;5028647;28;20174;-80
2023/05/03 12:50:03;;;;;;;3.88;2.55;;;28.70;37.10;;;;;;5066837;28;20136;-80
2023/05/03 12:52:33;;;;;;;2.95;2.22;;;28.70;37.70;;;;;;5050297;28;20036;-80
2023/05/03 12:55:00;;;;;;;3.13;2.13;;;28.70;37.70;;;;;;5019306;28;20029;-80